Terminal Aerodrome Forecast
Issued by NWS

Home | Current Version | Previous Version | Text Only | Print | Product List | Glossary On
Versions: 1 2 3 4 5 6 7 8 9 10 11 12 13 14 15 16 17
000
FTUS43 KLSX 160500
TAFSUS
TAF
KSUS 160530Z 1606/1706 VRB03KT P6SM SCT035 BKN100
     FM160900 VRB03KT P6SM SCT025 BKN040
      TEMPO 1609/1613 BKN025=

USA.gov is the U.S. government's official web portal to all federal, state and local government web resources and services.